createdAt,value
2023-04-07T00:01:25.061Z,5.60
2023-04-07T00:03:52.180Z,5.82
2023-04-07T00:06:18.936Z,5.63
2023-04-07T00:08:45.792Z,5.90
2023-04-07T00:11:12.434Z,6.10
2023-04-07T00:13:39.120Z,5.97
2023-04-07T00:16:06.025Z,6.03
2023-04-07T00:18:32.748Z,6.43
2023-04-07T00:20:59.442Z,7.10
2023-04-07T00:23:27.118Z,5.95
2023-04-07T00:25:53.894Z,6.03
2023-04-07T00:28:20.598Z,6.45
2023-04-07T00:30:47.281Z,6.82
2023-04-07T00:33:14.081Z,6.05
2023-04-07T00:35:40.787Z,5.85
2023-04-07T00:38:07.642Z,6.72
2023-04-07T00:40:34.385Z,6.55
2023-04-07T00:43:01.043Z,6.07
2023-04-07T00:45:27.760Z,6.60
2023-04-07T00:47:55.154Z,6.38
2023-04-07T00:50:21.972Z,6.60
2023-04-07T00:52:48.887Z,6.65
2023-04-07T00:55:15.618Z,6.72
2023-04-07T00:57:42.584Z,6.95
2023-04-07T01:00:10.018Z,6.00
2023-04-07T01:02:41.269Z,6.82
2023-04-07T01:05:26.326Z,6.70
2023-04-07T01:08:00.746Z,6.45
2023-04-07T01:10:35.924Z,5.25
2023-04-07T01:13:21.196Z,6.95
2023-04-07T01:15:50.395Z,6.40
2023-04-07T01:18:31.669Z,6.30
2023-04-07T01:21:05.060Z,6.63
2023-04-07T01:23:59.431Z,6.20
2023-04-07T01:26:31.035Z,6.05
2023-04-07T01:29:28.665Z,6.28
2023-04-07T01:31:56.381Z,6.32
2023-04-07T01:34:26.120Z,5.95
2023-04-07T01:36:54.557Z,6.55
2023-04-07T01:39:21.902Z,6.10
2023-04-07T01:41:49.520Z,5.95
2023-04-07T01:44:16.174Z,6.43
2023-04-07T01:46:42.870Z,6.22
2023-04-07T01:49:11.806Z,6.05
2023-04-07T01:51:38.566Z,6.45
2023-04-07T01:54:05.736Z,6.07
2023-04-07T01:56:32.455Z,6.72
2023-04-07T01:59:01.319Z,6.13
2023-04-07T02:01:29.779Z,5.85
2023-04-07T02:04:07.653Z,6.32
2023-04-07T02:06:43.584Z,6.25
2023-04-07T02:09:11.885Z,6.78
2023-04-07T02:11:40.475Z,6.15
2023-04-07T02:14:07.692Z,6.68
2023-04-07T02:16:48.857Z,6.50
2023-04-07T02:19:15.957Z,6.30
2023-04-07T02:21:43.516Z,6.65
2023-04-07T02:24:11.710Z,6.43
2023-04-07T02:26:38.387Z,6.35
2023-04-07T02:29:05.663Z,6.35
2023-04-07T02:31:32.383Z,6.47
2023-04-07T02:34:00.718Z,6.53
2023-04-07T02:36:27.613Z,6.90
2023-04-07T02:38:54.678Z,6.95
2023-04-07T02:41:21.508Z,7.28
2023-04-07T02:43:48.264Z,6.50
2023-04-07T02:46:16.689Z,6.57
2023-04-07T02:48:43.620Z,6.13
2023-04-07T02:51:10.410Z,7.18
2023-04-07T02:53:37.182Z,7.43
2023-04-07T02:56:04.932Z,7.28
2023-04-07T02:58:31.712Z,6.47
2023-04-07T03:00:58.460Z,7.38
2023-04-07T03:03:29.236Z,7.28
2023-04-07T03:06:05.146Z,6.90
2023-04-07T03:08:33.443Z,7.57
2023-04-07T03:11:00.452Z,6.97
2023-04-07T03:13:30.913Z,7.25
2023-04-07T03:15:58.115Z,7.93
2023-04-07T03:18:27.055Z,7.15
2023-04-07T03:20:59.823Z,7.22
2023-04-07T03:23:28.605Z,7.60
2023-04-07T03:25:58.270Z,6.45
2023-04-07T03:28:29.012Z,7.28
2023-04-07T03:30:55.757Z,7.13
2023-04-07T03:33:22.507Z,7.40
2023-04-07T03:35:49.245Z,7.78
2023-04-07T03:38:16.162Z,7.82
2023-04-07T03:40:43.402Z,8.35
2023-04-07T03:43:14.084Z,8.20
2023-04-07T03:45:41.398Z,8.43
2023-04-07T03:48:12.237Z,8.85
2023-04-07T03:50:48.323Z,9.45
2023-04-07T03:53:19.453Z,10.25
2023-04-07T03:55:46.424Z,9.77
2023-04-07T03:58:24.878Z,10.25
2023-04-07T04:00:51.699Z,10.02
2023-04-07T04:03:18.563Z,10.38
2023-04-07T04:06:00.649Z,10.13
2023-04-07T04:08:31.333Z,9.90
2023-04-07T04:10:58.098Z,9.65
2023-04-07T04:13:30.609Z,9.88
2023-04-07T04:16:00.871Z,9.07
2023-04-07T04:18:27.740Z,8.90
2023-04-07T04:20:55.376Z,9.73
2023-04-07T04:23:23.264Z,9.95
2023-04-07T04:25:53.147Z,9.52
2023-04-07T04:28:19.943Z,10.32
2023-04-07T04:30:46.876Z,8.88
2023-04-07T04:33:13.636Z,8.77
2023-04-07T04:36:09.675Z,8.65
2023-04-07T04:38:37.020Z,9.25
2023-04-07T04:41:10.068Z,9.20
2023-04-07T04:43:36.881Z,9.35
2023-04-07T04:46:05.601Z,8.43
2023-04-07T04:48:37.342Z,9.23
2023-04-07T04:51:06.068Z,9.45
2023-04-07T04:53:32.744Z,9.38
2023-04-07T04:56:01.748Z,9.80
2023-04-07T04:58:48.640Z,8.20
2023-04-07T05:01:27.459Z,9.18
2023-04-07T05:04:02.746Z,8.77
2023-04-07T05:06:30.053Z,8.70
2023-04-07T05:09:01.781Z,8.55
2023-04-07T05:11:36.262Z,8.85
2023-04-07T05:14:02.995Z,8.68
2023-04-07T05:16:30.368Z,8.65
2023-04-07T05:18:57.600Z,8.70
2023-04-07T05:21:27.091Z,8.77
2023-04-07T05:23:56.159Z,9.27
2023-04-07T05:26:24.255Z,8.35
2023-04-07T05:28:51.668Z,8.45
2023-04-07T05:31:21.720Z,8.85
2023-04-07T05:33:52.168Z,8.63
2023-04-07T05:36:21.923Z,7.85
2023-04-07T05:38:50.813Z,7.90
2023-04-07T05:41:18.879Z,7.97
2023-04-07T05:43:45.648Z,8.48
2023-04-07T05:46:14.338Z,8.48
2023-04-07T05:48:49.075Z,8.18
2023-04-07T05:51:16.401Z,9.13
2023-04-07T05:53:43.339Z,8.68
2023-04-07T05:56:10.604Z,8.35
2023-04-07T05:58:47.594Z,8.23
2023-04-07T06:01:15.990Z,7.53
2023-04-07T06:03:43.045Z,7.50
2023-04-07T06:06:36.194Z,7.68
2023-04-07T06:09:02.979Z,7.45
2023-04-07T06:11:29.716Z,7.70
2023-04-07T06:13:56.370Z,7.18
2023-04-07T06:16:23.924Z,7.13
2023-04-07T06:18:51.848Z,7.25
2023-04-07T06:21:18.465Z,6.80
2023-04-07T06:23:45.194Z,6.88
2023-04-07T06:26:12.307Z,6.43
2023-04-07T06:28:39.423Z,7.50
2023-04-07T06:31:07.249Z,7.68
2023-04-07T06:33:35.361Z,7.68
2023-04-07T06:36:02.143Z,6.53
2023-04-07T06:38:29.028Z,6.10
2023-04-07T06:40:55.794Z,6.13
2023-04-07T06:43:22.490Z,6.45
2023-04-07T06:45:54.880Z,6.43
2023-04-07T06:48:22.078Z,7.15
2023-04-07T06:50:52.034Z,6.88
2023-04-07T06:53:18.730Z,6.75
2023-04-07T06:55:45.569Z,6.80
2023-04-07T06:58:12.344Z,6.47
2023-04-07T07:00:39.127Z,7.32
2023-04-07T07:03:06.575Z,5.75
2023-04-07T07:05:33.466Z,6.32
2023-04-07T07:08:00.426Z,6.47
2023-04-07T07:10:27.317Z,6.13
2023-04-07T07:12:54.087Z,5.75
2023-04-07T07:15:20.755Z,6.07
2023-04-07T07:17:47.453Z,5.95
2023-04-07T07:20:14.272Z,5.18
2023-04-07T07:22:41.582Z,5.82
2023-04-07T07:25:08.401Z,6.80
2023-04-07T07:27:35.089Z,5.65
2023-04-07T07:30:01.783Z,4.90
2023-04-07T07:32:28.654Z,5.22
2023-04-07T07:34:57.428Z,5.63
2023-04-07T07:37:24.190Z,5.45
2023-04-07T07:39:50.934Z,5.43
2023-04-07T07:42:17.594Z,5.05
2023-04-07T07:44:44.276Z,5.95
2023-04-07T07:47:12.513Z,7.45
2023-04-07T07:49:39.583Z,6.30
2023-04-07T07:52:06.847Z,4.82
2023-04-07T07:54:34.356Z,4.78
2023-04-07T07:57:02.985Z,4.60
2023-04-07T07:59:31.117Z,4.72
2023-04-07T08:01:58.208Z,4.93
2023-04-07T08:04:25.059Z,4.90
2023-04-07T08:06:52.219Z,4.75
2023-04-07T08:09:19.717Z,5.07
2023-04-07T08:11:48.321Z,4.20
2023-04-07T08:14:15.902Z,4.75
2023-04-07T08:16:43.063Z,4.82
2023-04-07T08:19:10.809Z,4.80
2023-04-07T08:21:37.579Z,4.72
2023-04-07T08:24:04.592Z,4.57
2023-04-07T08:26:31.348Z,4.68
2023-04-07T08:28:58.595Z,4.47
2023-04-07T08:31:25.658Z,4.90
2023-04-07T08:33:58.138Z,4.88
2023-04-07T08:36:26.466Z,4.43
2023-04-07T08:38:53.154Z,4.60
2023-04-07T08:41:33.318Z,4.68
2023-04-07T08:44:01.704Z,4.38
2023-04-07T08:46:28.901Z,5.45
2023-04-07T08:48:56.906Z,4.55
2023-04-07T08:51:30.292Z,4.60
2023-04-07T08:54:26.545Z,4.57
2023-04-07T08:56:53.660Z,4.40
2023-04-07T08:59:26.482Z,4.95
2023-04-07T09:01:53.699Z,3.85
2023-04-07T09:04:23.129Z,4.28
2023-04-07T09:06:49.941Z,4.10
2023-04-07T09:09:16.668Z,3.70
2023-04-07T09:11:43.608Z,3.58
2023-04-07T09:14:10.423Z,3.40
2023-04-07T09:16:37.286Z,4.50
2023-04-07T09:19:04.024Z,3.72
2023-04-07T09:21:56.868Z,3.72
2023-04-07T09:24:28.757Z,4.00
2023-04-07T09:27:17.199Z,4.25
2023-04-07T09:29:46.282Z,4.07
2023-04-07T09:32:14.336Z,4.00
2023-04-07T09:34:41.627Z,4.10
2023-04-07T09:37:09.586Z,3.75
2023-04-07T09:39:50.775Z,4.60
2023-04-07T09:42:17.461Z,4.22
2023-04-07T09:44:44.346Z,4.68
2023-04-07T09:47:11.270Z,3.95
2023-04-07T09:49:53.558Z,4.63
2023-04-07T09:52:25.450Z,4.25
2023-04-07T09:54:53.071Z,4.53
2023-04-07T09:57:21.185Z,4.45
2023-04-07T09:59:49.081Z,4.55
2023-04-07T10:02:16.264Z,3.85
2023-04-07T10:04:43.840Z,4.07
2023-04-07T10:07:10.662Z,3.92
2023-04-07T10:09:44.694Z,3.83
2023-04-07T10:12:11.612Z,4.65
2023-04-07T10:14:40.221Z,4.10
2023-04-07T10:17:08.478Z,3.85
2023-04-07T10:19:36.151Z,4.53
2023-04-07T10:22:03.631Z,4.70
2023-04-07T10:24:52.138Z,3.70
2023-04-07T10:27:28.291Z,4.50
2023-04-07T10:29:55.350Z,3.47
2023-04-07T10:32:22.040Z,3.88
2023-04-07T10:34:53.673Z,3.75
2023-04-07T10:37:22.303Z,4.10
2023-04-07T10:39:51.137Z,4.28
2023-04-07T10:42:39.721Z,4.13
2023-04-07T10:45:10.441Z,4.65
2023-04-07T10:47:59.398Z,5.97
2023-04-07T10:50:26.688Z,3.78
2023-04-07T10:53:10.579Z,4.75
2023-04-07T10:55:41.704Z,3.95
2023-04-07T10:58:18.549Z,3.92
2023-04-07T11:00:57.693Z,4.15
2023-04-07T11:03:25.729Z,3.58
2023-04-07T11:05:52.654Z,3.83
2023-04-07T11:08:48.223Z,4.18
2023-04-07T11:11:17.301Z,5.03
2023-04-07T11:13:44.898Z,4.85
2023-04-07T11:16:12.563Z,4.80
2023-04-07T11:18:40.635Z,5.35
2023-04-07T11:21:09.654Z,5.57
2023-04-07T11:23:40.923Z,5.82
2023-04-07T11:26:09.264Z,5.47
2023-04-07T11:28:37.872Z,4.85
2023-04-07T11:31:04.856Z,5.18
2023-04-07T11:33:32.281Z,5.28
2023-04-07T11:36:01.355Z,4.53
2023-04-07T11:38:38.522Z,4.63
2023-04-07T11:41:16.002Z,4.45
2023-04-07T11:43:42.926Z,4.55
2023-04-07T11:46:12.038Z,4.53
2023-04-07T11:48:43.348Z,3.70
2023-04-07T11:51:18.256Z,3.67
2023-04-07T11:53:45.322Z,3.92
2023-04-07T11:56:17.504Z,3.58
2023-04-07T11:58:48.970Z,3.97
2023-04-07T12:01:16.290Z,3.30
2023-04-07T12:04:03.278Z,3.35
2023-04-07T12:06:35.042Z,2.92
2023-04-07T12:09:02.698Z,2.47
2023-04-07T12:11:30.125Z,2.67
2023-04-07T12:13:57.257Z,2.33
2023-04-07T12:16:24.550Z,2.22
2023-04-07T12:18:54.550Z,2.42
2023-04-07T12:21:21.367Z,1.90
2023-04-07T12:23:48.609Z,2.03
2023-04-07T12:26:15.630Z,2.13
2023-04-07T12:28:42.421Z,2.03
2023-04-07T12:31:09.111Z,1.83
2023-04-07T12:33:35.926Z,2.13
2023-04-07T12:36:02.606Z,2.08
2023-04-07T12:38:29.318Z,2.20
2023-04-07T12:40:56.581Z,2.28
2023-04-07T12:43:23.303Z,2.50
2023-04-07T12:45:50.005Z,2.47
2023-04-07T12:48:17.752Z,2.47
2023-04-07T12:50:44.449Z,2.45
2023-04-07T12:53:13.976Z,2.03
2023-04-07T12:55:40.853Z,2.60
2023-04-07T12:58:09.131Z,2.65
2023-04-07T13:00:35.977Z,2.17
2023-04-07T13:03:03.524Z,2.33
2023-04-07T13:05:30.489Z,2.30
2023-04-07T13:07:57.104Z,1.90
2023-04-07T13:10:23.852Z,2.50
2023-04-07T13:12:50.495Z,2.50
2023-04-07T13:15:17.229Z,2.63
2023-04-07T13:17:43.882Z,3.88
2023-04-07T13:20:11.036Z,2.53
2023-04-07T13:22:46.089Z,3.15
2023-04-07T13:25:15.865Z,6.78
2023-04-07T13:27:42.626Z,3.08
2023-04-07T13:30:09.795Z,3.13
2023-04-07T13:32:36.582Z,3.28
2023-04-07T13:35:03.607Z,3.22
2023-04-07T13:37:30.451Z,3.13
2023-04-07T13:39:57.101Z,2.38
2023-04-07T13:42:23.772Z,2.75
2023-04-07T13:44:51.002Z,2.75
2023-04-07T13:47:20.552Z,2.83
2023-04-07T13:49:47.964Z,2.53
2023-04-07T13:52:16.014Z,2.05
2023-04-07T13:54:43.144Z,2.08
2023-04-07T13:57:09.883Z,2.50
2023-04-07T13:59:36.550Z,2.90
2023-04-07T14:02:03.376Z,3.00
2023-04-07T14:04:30.165Z,2.90
2023-04-07T14:06:57.039Z,2.70
2023-04-07T14:09:23.708Z,2.70
2023-04-07T14:11:50.357Z,3.08
2023-04-07T14:14:17.060Z,2.78
2023-04-07T14:16:44.544Z,2.95
2023-04-07T14:19:11.260Z,2.80
2023-04-07T14:21:38.000Z,2.40
2023-04-07T14:24:04.653Z,2.20
2023-04-07T14:26:31.305Z,2.17
2023-04-07T14:28:58.060Z,2.28
2023-04-07T14:31:24.820Z,2.30
2023-04-07T14:33:51.990Z,2.30
2023-04-07T14:36:18.867Z,3.20
2023-04-07T14:38:45.526Z,3.75
2023-04-07T14:41:13.074Z,2.80
2023-04-07T14:43:39.806Z,2.72
2023-04-07T14:46:06.968Z,3.10
2023-04-07T14:48:33.890Z,3.17
2023-04-07T14:51:09.673Z,2.75
2023-04-07T14:53:36.905Z,2.80
2023-04-07T14:56:07.085Z,2.45
2023-04-07T14:58:34.021Z,2.75
2023-04-07T15:01:00.667Z,2.75
2023-04-07T15:03:27.459Z,2.80
2023-04-07T15:05:54.428Z,2.40
2023-04-07T15:08:21.204Z,2.75
2023-04-07T15:10:47.858Z,2.67
2023-04-07T15:13:14.541Z,2.78
2023-04-07T15:15:41.198Z,3.05
2023-04-07T15:18:07.937Z,3.00
2023-04-07T15:20:34.587Z,3.72
2023-04-07T15:23:01.436Z,3.38
2023-04-07T15:25:28.722Z,3.53
2023-04-07T15:27:55.395Z,2.80
2023-04-07T15:30:22.174Z,3.00
2023-04-07T15:33:00.398Z,2.67
2023-04-07T15:35:27.750Z,3.28
2023-04-07T15:37:54.402Z,3.05
2023-04-07T15:40:21.170Z,3.05
2023-04-07T15:42:48.739Z,3.35
2023-04-07T15:45:15.469Z,3.15
2023-04-07T15:47:42.218Z,3.00
2023-04-07T15:50:09.381Z,2.53
2023-04-07T15:52:36.154Z,3.85
2023-04-07T15:55:02.861Z,3.35
2023-04-07T15:57:29.492Z,3.08
2023-04-07T15:59:58.373Z,3.00
2023-04-07T16:02:26.121Z,2.80
2023-04-07T16:04:55.916Z,3.47
2023-04-07T16:07:22.609Z,3.13
2023-04-07T16:09:49.298Z,3.38
2023-04-07T16:12:16.594Z,2.75
2023-04-07T16:14:43.359Z,2.83
2023-04-07T16:17:11.056Z,2.92
2023-04-07T16:19:37.727Z,3.20
2023-04-07T16:22:04.323Z,3.50
2023-04-07T16:24:31.175Z,3.58
2023-04-07T16:26:57.854Z,3.90
2023-04-07T16:29:24.491Z,3.70
2023-04-07T16:31:51.157Z,3.92
2023-04-07T16:34:17.846Z,3.55
2023-04-07T16:36:44.658Z,3.60
2023-04-07T16:39:11.321Z,3.25
2023-04-07T16:41:37.958Z,3.63
2023-04-07T16:44:04.545Z,4.18
2023-04-07T16:46:32.062Z,3.72
2023-04-07T16:48:58.824Z,3.63
2023-04-07T16:51:26.993Z,3.50
2023-04-07T16:53:53.841Z,3.60
2023-04-07T16:56:22.208Z,3.22
2023-04-07T16:58:49.495Z,3.85
2023-04-07T17:01:16.507Z,3.67
2023-04-07T17:03:43.302Z,3.17
2023-04-07T17:06:10.137Z,3.60
2023-04-07T17:08:38.268Z,3.15
2023-04-07T17:11:09.433Z,3.38
2023-04-07T17:13:36.607Z,3.20
2023-04-07T17:16:03.952Z,3.30
2023-04-07T17:18:32.571Z,3.35
2023-04-07T17:20:59.211Z,3.60
2023-04-07T17:23:26.264Z,3.22
2023-04-07T17:25:56.243Z,3.58
2023-04-07T17:28:22.860Z,3.35
2023-04-07T17:30:49.566Z,3.53
2023-04-07T17:33:16.504Z,4.72
2023-04-07T17:35:43.124Z,5.95
2023-04-07T17:38:09.892Z,6.28
2023-04-07T17:40:36.534Z,5.88
2023-04-07T17:43:03.616Z,4.53
2023-04-07T17:45:31.975Z,5.20
2023-04-07T17:48:01.578Z,5.72
2023-04-07T17:50:28.359Z,6.40
2023-04-07T17:52:54.962Z,4.38
2023-04-07T17:55:22.432Z,4.93
2023-04-07T17:57:51.632Z,4.75
2023-04-07T18:00:18.618Z,4.95
2023-04-07T18:02:45.683Z,4.13
2023-04-07T18:05:12.772Z,4.65
2023-04-07T18:07:39.399Z,4.13
2023-04-07T18:10:06.532Z,5.03
2023-04-07T18:12:33.831Z,5.10
2023-04-07T18:15:00.481Z,5.05
2023-04-07T18:17:27.176Z,5.60
2023-04-07T18:19:53.866Z,5.38
2023-04-07T18:22:20.535Z,5.45
2023-04-07T18:24:47.443Z,5.55
2023-04-07T18:27:14.096Z,6.03
2023-04-07T18:29:40.754Z,5.88
2023-04-07T18:32:07.466Z,6.97
2023-04-07T18:34:34.259Z,8.43
2023-04-07T18:37:01.152Z,8.60
2023-04-07T18:39:30.387Z,10.15
2023-04-07T18:41:57.881Z,10.30
2023-04-07T18:44:25.543Z,9.65
2023-04-07T18:46:53.718Z,8.32
2023-04-07T18:49:20.546Z,9.35
2023-04-07T18:51:48.211Z,6.65
2023-04-07T18:54:15.038Z,8.52
2023-04-07T18:56:42.112Z,7.78
2023-04-07T18:59:08.828Z,7.25
2023-04-07T19:01:35.818Z,6.95
2023-04-07T19:04:03.035Z,8.05
2023-04-07T19:06:32.035Z,7.70
2023-04-07T19:08:59.175Z,8.65
2023-04-07T19:11:26.206Z,8.07
2023-04-07T19:13:53.333Z,8.88
2023-04-07T19:16:21.761Z,8.25
2023-04-07T19:18:48.429Z,10.00
2023-04-07T19:21:15.073Z,9.98
2023-04-07T19:23:42.227Z,9.63
2023-04-07T19:26:15.279Z,9.63
2023-04-07T19:28:42.396Z,10.50
2023-04-07T19:31:09.412Z,9.60
2023-04-07T19:33:36.659Z,9.98
2023-04-07T19:36:04.519Z,10.27
2023-04-07T19:38:31.683Z,9.90
2023-04-07T19:40:58.328Z,9.20
2023-04-07T19:43:25.350Z,18.48
2023-04-07T19:45:52.122Z,31.35
2023-04-07T19:48:19.126Z,50.60
2023-04-07T19:50:49.829Z,32.65
2023-04-07T19:53:16.671Z,11.95
2023-04-07T19:55:44.083Z,10.55
2023-04-07T19:58:11.211Z,10.80
2023-04-07T20:00:39.260Z,11.70
2023-04-07T20:03:06.520Z,12.18
2023-04-07T20:05:34.110Z,10.77
2023-04-07T20:08:03.500Z,13.82
2023-04-07T20:10:30.342Z,12.05
2023-04-07T20:12:57.523Z,14.98
2023-04-07T20:15:27.097Z,13.63
2023-04-07T20:17:53.700Z,13.85
2023-04-07T20:20:20.642Z,13.45
2023-04-07T20:22:47.337Z,13.27
2023-04-07T20:25:13.957Z,13.50
2023-04-07T20:27:40.584Z,13.90
2023-04-07T20:30:07.758Z,13.07
2023-04-07T20:32:35.433Z,13.27
2023-04-07T20:35:03.745Z,12.98
2023-04-07T20:37:30.595Z,12.52
2023-04-07T20:39:57.616Z,13.70
2023-04-07T20:42:24.452Z,12.40
2023-04-07T20:44:53.275Z,13.88
2023-04-07T20:47:19.859Z,14.50
2023-04-07T20:49:47.065Z,13.50
2023-04-07T20:52:13.749Z,14.07
2023-04-07T20:54:42.673Z,14.15
2023-04-07T20:57:09.410Z,13.95
2023-04-07T20:59:36.117Z,13.70
2023-04-07T21:02:03.137Z,15.32
2023-04-07T21:04:29.908Z,15.23
2023-04-07T21:06:56.572Z,14.98
2023-04-07T21:09:23.238Z,14.43
2023-04-07T21:11:49.897Z,15.30
2023-04-07T21:14:16.560Z,14.57
2023-04-07T21:16:43.678Z,15.73
2023-04-07T21:19:11.112Z,15.57
2023-04-07T21:21:37.802Z,14.57
2023-04-07T21:24:04.521Z,15.43
2023-04-07T21:26:31.246Z,14.77
2023-04-07T21:28:57.963Z,14.40
2023-04-07T21:31:24.833Z,14.70
2023-04-07T21:33:52.789Z,15.52
2023-04-07T21:36:19.468Z,15.32
2023-04-07T21:38:46.264Z,15.35
2023-04-07T21:41:12.973Z,15.30
2023-04-07T21:43:39.822Z,18.17
2023-04-07T21:46:06.635Z,16.52
2023-04-07T21:48:34.829Z,15.15
2023-04-07T21:51:01.479Z,17.08
2023-04-07T21:53:28.194Z,18.40
2023-04-07T21:55:54.849Z,18.15
2023-04-07T21:58:23.441Z,27.77
2023-04-07T22:00:50.122Z,16.08
2023-04-07T22:03:17.071Z,24.73
2023-04-07T22:05:43.794Z,21.55
2023-04-07T22:08:10.503Z,16.98
2023-04-07T22:10:37.312Z,17.05
2023-04-07T22:13:03.933Z,16.77
2023-04-07T22:15:30.761Z,16.20
2023-04-07T22:17:57.783Z,15.93
2023-04-07T22:20:25.886Z,17.85
2023-04-07T22:22:54.081Z,19.48
2023-04-07T22:25:21.806Z,18.67
2023-04-07T22:27:48.523Z,17.10
2023-04-07T22:30:15.222Z,18.35
2023-04-07T22:32:41.937Z,17.08
2023-04-07T22:35:08.979Z,18.95
2023-04-07T22:37:35.715Z,20.23
2023-04-07T22:40:02.343Z,18.80
2023-04-07T22:42:28.995Z,24.98
2023-04-07T22:44:55.805Z,25.45
2023-04-07T22:47:22.639Z,22.17
2023-04-07T22:49:49.376Z,26.48
2023-04-07T22:52:16.020Z,21.65
2023-04-07T22:54:42.711Z,20.10
2023-04-07T22:57:09.432Z,19.23
2023-04-07T22:59:36.490Z,18.55
2023-04-07T23:02:03.173Z,21.10
2023-04-07T23:04:29.988Z,18.67
2023-04-07T23:06:57.030Z,21.15
2023-04-07T23:09:23.773Z,17.88
2023-04-07T23:11:50.757Z,16.60
2023-04-07T23:14:17.386Z,15.70
2023-04-07T23:16:44.059Z,16.67
2023-04-07T23:19:11.857Z,15.18
2023-04-07T23:21:39.599Z,15.07
2023-04-07T23:24:06.522Z,15.00
2023-04-07T23:26:33.281Z,13.45
2023-04-07T23:28:59.917Z,14.20
2023-04-07T23:31:26.646Z,14.32
2023-04-07T23:33:53.259Z,14.00
2023-04-07T23:36:19.943Z,12.93
2023-04-07T23:38:46.854Z,13.68
2023-04-07T23:41:13.637Z,11.93
2023-04-07T23:43:40.316Z,11.30
2023-04-07T23:46:07.018Z,10.88
2023-04-07T23:48:33.739Z,11.07
2023-04-07T23:51:00.444Z,12.50
2023-04-07T23:53:27.140Z,11.23
2023-04-07T23:55:54.187Z,10.15
2023-04-07T23:58:20.866Z,10.50
